createdAt,value
2023-06-11T00:01:54.281Z,98340.97
2023-06-11T00:04:25.956Z,98340.13
2023-06-11T00:07:00.967Z,98340.97
2023-06-11T00:09:28.016Z,98331.72
2023-06-11T00:11:55.252Z,98343.25
2023-06-11T00:14:23.786Z,98337.00
2023-06-11T00:16:51.726Z,98343.25
2023-06-11T00:19:21.684Z,98343.56
2023-06-11T00:21:50.579Z,98344.28
2023-06-11T00:24:19.005Z,98336.84
2023-06-11T00:26:46.028Z,98335.13
2023-06-11T00:29:12.868Z,98342.53
2023-06-11T00:31:39.756Z,98336.56
2023-06-11T00:34:06.929Z,98337.81
2023-06-11T00:36:34.563Z,98337.97
2023-06-11T00:39:01.463Z,98336.38
2023-06-11T00:41:31.244Z,98340.50
2023-06-11T00:43:58.459Z,98333.94
2023-06-11T00:46:25.845Z,98331.91
2023-06-11T00:48:52.676Z,98330.59
2023-06-11T00:51:23.171Z,98335.56
2023-06-11T00:53:50.177Z,98328.72
2023-06-11T00:56:18.824Z,98340.63
2023-06-11T00:58:46.973Z,98342.91
2023-06-11T01:01:18.892Z,98337.75
2023-06-11T01:03:45.740Z,98345.41
2023-06-11T01:06:20.807Z,98342.88
2023-06-11T01:08:54.358Z,98336.56
2023-06-11T01:11:24.804Z,98343.84
2023-06-11T01:13:55.443Z,98340.41
2023-06-11T01:16:35.768Z,98345.72
2023-06-11T01:19:21.314Z,98343.13
2023-06-11T01:22:00.548Z,98344.38
2023-06-11T01:25:00.359Z,98344.81
2023-06-11T01:27:45.269Z,98348.63
2023-06-11T01:30:22.054Z,98357.00
2023-06-11T01:32:57.304Z,98352.69
2023-06-11T01:35:25.800Z,98344.97
2023-06-11T01:37:59.571Z,98356.03
2023-06-11T01:40:27.798Z,98353.88
2023-06-11T01:42:56.017Z,98352.91
2023-06-11T01:45:24.504Z,98365.81
2023-06-11T01:47:52.712Z,98361.66
2023-06-11T01:50:20.625Z,98360.91
2023-06-11T01:52:48.080Z,98358.50
2023-06-11T01:55:15.150Z,98362.56
2023-06-11T01:57:42.541Z,98358.13
2023-06-11T02:00:11.764Z,98356.31
2023-06-11T02:02:45.639Z,98354.59
2023-06-11T02:05:13.056Z,98363.09
2023-06-11T02:07:40.009Z,98358.66
2023-06-11T02:10:06.974Z,98355.84
2023-06-11T02:12:33.899Z,98356.69
2023-06-11T02:15:00.795Z,98356.69
2023-06-11T02:17:27.581Z,98368.38
2023-06-11T02:19:54.957Z,98363.81
2023-06-11T02:22:21.774Z,98373.63
2023-06-11T02:24:48.583Z,98361.84
2023-06-11T02:27:17.471Z,98368.38
2023-06-11T02:29:44.236Z,98371.47
2023-06-11T02:32:11.884Z,98371.59
2023-06-11T02:34:38.668Z,98362.50
2023-06-11T02:37:05.595Z,98369.75
2023-06-11T02:39:32.408Z,98369.00
2023-06-11T02:41:59.187Z,98375.41
2023-06-11T02:44:26.075Z,98372.72
2023-06-11T02:46:52.881Z,98364.00
2023-06-11T02:49:19.734Z,98368.44
2023-06-11T02:51:46.435Z,98370.00
2023-06-11T02:54:13.164Z,98378.72
2023-06-11T02:56:39.869Z,98367.78
2023-06-11T02:59:06.775Z,98376.34
2023-06-11T03:01:34.569Z,98372.53
2023-06-11T03:04:01.480Z,98377.06
2023-06-11T03:06:28.216Z,98374.25
2023-06-11T03:08:54.969Z,98382.94
2023-06-11T03:11:21.728Z,98372.84
2023-06-11T03:13:48.458Z,98377.00
2023-06-11T03:16:15.286Z,98378.34
2023-06-11T03:18:43.875Z,98375.38
2023-06-11T03:21:12.130Z,98369.56
2023-06-11T03:23:39.112Z,98389.09
2023-06-11T03:26:06.169Z,98389.94
2023-06-11T03:28:32.918Z,98390.72
2023-06-11T03:30:59.952Z,98396.34
2023-06-11T03:33:26.800Z,98395.34
2023-06-11T03:35:54.198Z,98396.78
2023-06-11T03:38:20.988Z,98401.41
2023-06-11T03:40:47.814Z,98403.72
2023-06-11T03:43:15.034Z,98409.16
2023-06-11T03:45:41.775Z,98410.38
2023-06-11T03:48:09.495Z,98415.66
2023-06-11T03:50:36.360Z,98420.69
2023-06-11T03:53:03.262Z,98413.16
2023-06-11T03:55:31.151Z,98417.16
2023-06-11T03:57:58.139Z,98420.22
2023-06-11T04:00:25.122Z,98418.69
2023-06-11T04:02:52.238Z,98412.47
2023-06-11T04:05:19.200Z,98417.94
2023-06-11T04:07:45.902Z,98409.25
2023-06-11T04:10:12.737Z,98411.28
2023-06-11T04:12:39.970Z,98407.03
2023-06-11T04:15:08.891Z,98407.06
2023-06-11T04:17:36.212Z,98419.97
2023-06-11T04:20:03.946Z,98425.69
2023-06-11T04:22:30.896Z,98418.97
2023-06-11T04:24:57.615Z,98422.16
2023-06-11T04:27:24.315Z,98412.59
2023-06-11T04:29:54.202Z,98421.91
2023-06-11T04:32:22.556Z,98435.88
2023-06-11T04:34:49.900Z,98424.31
2023-06-11T04:37:20.334Z,98416.94
2023-06-11T04:39:47.080Z,98420.06
2023-06-11T04:42:15.703Z,98413.78
2023-06-11T04:44:42.485Z,98419.34
2023-06-11T04:47:09.520Z,98428.06
2023-06-11T04:49:36.338Z,98423.53
2023-06-11T04:52:03.295Z,98434.53
2023-06-11T04:54:30.047Z,98425.78
2023-06-11T04:56:56.751Z,98424.78
2023-06-11T04:59:23.519Z,98424.19
2023-06-11T05:01:51.880Z,98419.41
2023-06-11T05:04:18.857Z,98428.25
2023-06-11T05:06:49.469Z,98426.50
2023-06-11T05:09:17.332Z,98430.78
2023-06-11T05:11:45.718Z,98430.41
2023-06-11T05:14:13.087Z,98433.63
2023-06-11T05:16:40.482Z,98438.53
2023-06-11T05:19:07.609Z,98429.66
2023-06-11T05:21:34.488Z,98440.25
2023-06-11T05:24:08.481Z,98451.13
2023-06-11T05:26:37.049Z,98437.63
2023-06-11T05:29:05.060Z,98445.09
2023-06-11T05:31:32.664Z,98442.88
2023-06-11T05:33:59.528Z,98447.34
2023-06-11T05:36:27.532Z,98453.00
2023-06-11T05:38:55.051Z,98448.56
2023-06-11T05:41:22.653Z,98454.25
2023-06-11T05:43:49.462Z,98455.66
2023-06-11T05:46:17.106Z,98451.47
2023-06-11T05:48:44.664Z,98456.56
2023-06-11T05:51:12.792Z,98456.22
2023-06-11T05:53:41.969Z,98465.00
2023-06-11T05:56:08.765Z,98465.78
2023-06-11T05:58:35.605Z,98467.53
2023-06-11T06:01:03.945Z,98468.78
2023-06-11T06:03:32.101Z,98472.53
2023-06-11T06:06:02.471Z,98471.13
2023-06-11T06:08:30.905Z,98478.03
2023-06-11T06:10:58.469Z,98474.94
2023-06-11T06:13:26.231Z,98477.03
2023-06-11T06:15:54.250Z,98474.44
2023-06-11T06:18:21.784Z,98473.38
2023-06-11T06:20:49.690Z,98470.78
2023-06-11T06:23:16.535Z,98482.06
2023-06-11T06:25:44.023Z,98480.44
2023-06-11T06:28:10.938Z,98473.19
2023-06-11T06:30:40.308Z,98476.19
2023-06-11T06:33:07.094Z,98468.19
2023-06-11T06:35:34.020Z,98474.38
2023-06-11T06:38:02.221Z,98462.81
2023-06-11T06:40:29.238Z,98470.00
2023-06-11T06:42:56.229Z,98472.97
2023-06-11T06:45:23.218Z,98466.25
2023-06-11T06:47:50.109Z,98463.00
2023-06-11T06:50:17.114Z,98464.81
2023-06-11T06:52:43.973Z,98456.56
2023-06-11T06:55:10.994Z,98460.22
2023-06-11T06:57:37.973Z,98466.13
2023-06-11T07:00:07.145Z,98464.41
2023-06-11T07:02:33.925Z,98472.22
2023-06-11T07:05:01.859Z,98474.44
2023-06-11T07:07:28.717Z,98454.72
2023-06-11T07:09:57.406Z,98458.88
2023-06-11T07:12:27.412Z,98469.72
2023-06-11T07:14:55.312Z,98464.25
2023-06-11T07:17:24.064Z,98467.66
2023-06-11T07:19:51.488Z,98476.34
2023-06-11T07:22:18.858Z,98480.47
2023-06-11T07:24:48.475Z,98475.97
2023-06-11T07:27:16.236Z,98471.03
2023-06-11T07:29:43.009Z,98481.78
2023-06-11T07:32:11.960Z,98473.56
2023-06-11T07:34:38.716Z,98466.66
2023-06-11T07:37:06.802Z,98468.28
2023-06-11T07:39:33.503Z,98469.09
2023-06-11T07:42:00.279Z,98480.91
2023-06-11T07:44:28.311Z,98482.03
2023-06-11T07:46:55.059Z,98474.56
2023-06-11T07:49:22.798Z,98495.56
2023-06-11T07:51:49.714Z,98487.50
2023-06-11T07:54:16.900Z,98488.13
2023-06-11T07:56:43.745Z,98481.00
2023-06-11T07:59:10.497Z,98491.06
2023-06-11T08:01:38.742Z,98485.97
2023-06-11T08:04:05.970Z,98487.44
2023-06-11T08:06:32.942Z,98482.09
2023-06-11T08:08:59.710Z,98484.72
2023-06-11T08:11:28.501Z,98492.28
2023-06-11T08:13:55.632Z,98479.13
2023-06-11T08:16:22.583Z,98475.34
2023-06-11T08:18:49.401Z,98474.63
2023-06-11T08:21:16.120Z,98475.88
2023-06-11T08:23:44.025Z,98483.63
2023-06-11T08:26:10.765Z,98483.75
2023-06-11T08:28:37.877Z,98472.28
2023-06-11T08:31:04.805Z,98472.19
2023-06-11T08:33:31.642Z,98473.94
2023-06-11T08:35:58.547Z,98470.22
2023-06-11T08:38:29.236Z,98468.53
2023-06-11T08:40:56.112Z,98465.44
2023-06-11T08:43:25.437Z,98475.31
2023-06-11T08:45:52.673Z,98475.41
2023-06-11T08:48:30.494Z,98466.84
2023-06-11T08:51:04.951Z,98478.19
2023-06-11T08:53:33.598Z,98479.53
2023-06-11T08:56:00.349Z,98481.84
2023-06-11T08:58:29.233Z,98483.28
2023-06-11T09:00:55.788Z,98467.31
2023-06-11T09:03:22.695Z,98469.25
2023-06-11T09:05:52.484Z,98461.97
2023-06-11T09:08:19.369Z,98469.00
2023-06-11T09:10:51.210Z,98459.66
2023-06-11T09:13:28.703Z,98463.69
2023-06-11T09:16:00.475Z,98459.59
2023-06-11T09:18:28.414Z,98454.53
2023-06-11T09:21:01.567Z,98458.97
2023-06-11T09:23:31.937Z,98459.81
2023-06-11T09:26:03.236Z,98449.72
2023-06-11T09:28:35.220Z,98454.50
2023-06-11T09:31:04.271Z,98468.78
2023-06-11T09:33:34.365Z,98462.59
2023-06-11T09:36:03.160Z,98453.13
2023-06-11T09:38:35.208Z,98468.88
2023-06-11T09:41:06.783Z,98460.75
2023-06-11T09:43:37.110Z,98456.19
2023-06-11T09:46:04.070Z,98449.84
2023-06-11T09:48:31.232Z,98459.59
2023-06-11T09:51:02.824Z,98456.84
2023-06-11T09:53:33.187Z,98466.53
2023-06-11T09:56:11.084Z,98456.38
2023-06-11T09:58:42.438Z,98459.84
2023-06-11T10:01:10.716Z,98476.41
2023-06-11T10:03:37.682Z,98467.59
2023-06-11T10:06:16.783Z,98472.03
2023-06-11T10:08:46.846Z,98471.34
2023-06-11T10:11:13.835Z,98466.59
2023-06-11T10:13:41.600Z,98474.03
2023-06-11T10:16:10.216Z,98462.13
2023-06-11T10:18:39.900Z,98477.06
2023-06-11T10:21:06.767Z,98468.56
2023-06-11T10:23:38.760Z,98472.59
2023-06-11T10:26:07.860Z,98465.69
2023-06-11T10:28:49.754Z,98456.00
2023-06-11T10:31:30.882Z,98478.63
2023-06-11T10:34:05.460Z,98481.03
2023-06-11T10:36:38.544Z,98471.97
2023-06-11T10:39:13.693Z,98477.22
2023-06-11T10:41:41.909Z,98472.97
2023-06-11T10:44:11.057Z,98479.19
2023-06-11T10:46:51.213Z,98467.09
2023-06-11T10:49:20.450Z,98463.94
2023-06-11T10:51:53.786Z,98474.31
2023-06-11T10:54:28.072Z,98464.78
2023-06-11T10:57:00.223Z,98464.56
2023-06-11T10:59:27.266Z,98461.72
2023-06-11T11:01:54.646Z,98471.63
2023-06-11T11:04:24.645Z,98476.91
2023-06-11T11:07:04.812Z,98466.50
2023-06-11T11:09:32.582Z,98470.72
2023-06-11T11:12:00.059Z,98458.38
2023-06-11T11:14:29.258Z,98460.84
2023-06-11T11:16:57.080Z,98454.56
2023-06-11T11:19:27.094Z,98457.97
2023-06-11T11:21:54.246Z,98447.13
2023-06-11T11:24:21.997Z,98449.31
2023-06-11T11:26:49.160Z,98452.00
2023-06-11T11:29:16.095Z,98464.84
2023-06-11T11:31:46.462Z,98447.25
2023-06-11T11:34:13.954Z,98429.09
2023-06-11T11:36:41.936Z,98445.31
2023-06-11T11:39:14.472Z,98447.97
2023-06-11T11:41:52.358Z,98441.25
2023-06-11T11:44:19.363Z,98435.72
2023-06-11T11:46:46.578Z,98446.69
2023-06-11T11:49:14.535Z,98445.75
2023-06-11T11:51:43.365Z,98438.19
2023-06-11T11:54:16.489Z,98436.00
2023-06-11T11:56:44.077Z,98441.13
2023-06-11T11:59:21.220Z,98434.84
2023-06-11T12:02:02.490Z,98434.78
2023-06-11T12:04:35.186Z,98437.41
2023-06-11T12:07:12.284Z,98443.53
2023-06-11T12:09:40.680Z,98441.88
2023-06-11T12:12:08.862Z,98433.66
2023-06-11T12:14:36.235Z,98443.34
2023-06-11T12:17:05.228Z,98431.06
2023-06-11T12:19:32.913Z,98437.38
2023-06-11T12:21:59.755Z,98430.13
2023-06-11T12:24:26.706Z,98415.19
2023-06-11T12:26:53.967Z,98427.06
2023-06-11T12:29:20.795Z,98431.91
2023-06-11T12:31:50.176Z,98435.69
2023-06-11T12:34:17.408Z,98433.63
2023-06-11T12:36:44.878Z,98423.13
2023-06-11T12:39:12.245Z,98426.03
2023-06-11T12:41:39.046Z,98435.91
2023-06-11T12:44:06.001Z,98443.47
2023-06-11T12:46:32.978Z,98428.09
2023-06-11T12:48:59.761Z,98433.84
2023-06-11T12:51:26.538Z,98434.59
2023-06-11T12:53:54.055Z,98436.66
2023-06-11T12:56:24.268Z,98432.88
2023-06-11T12:58:51.754Z,98420.22
2023-06-11T13:01:18.970Z,98434.69
2023-06-11T13:03:45.930Z,98444.06
2023-06-11T13:06:12.805Z,98433.41
2023-06-11T13:08:40.603Z,98475.38
2023-06-11T13:11:10.928Z,98420.81
2023-06-11T13:13:37.749Z,98430.88
2023-06-11T13:16:04.753Z,98429.53
2023-06-11T13:18:31.792Z,98425.03
2023-06-11T13:21:00.777Z,98426.13
2023-06-11T13:23:32.532Z,98425.84
2023-06-11T13:26:01.400Z,98416.78
2023-06-11T13:28:28.591Z,98421.88
2023-06-11T13:30:57.227Z,98410.38
2023-06-11T13:33:31.899Z,98409.81
2023-06-11T13:35:59.100Z,98414.06
2023-06-11T13:38:26.475Z,98414.91
2023-06-11T13:40:56.046Z,98416.59
2023-06-11T13:43:22.958Z,98418.59
2023-06-11T13:45:51.066Z,98415.91
2023-06-11T13:48:19.660Z,98417.50
2023-06-11T13:50:48.654Z,98411.16
2023-06-11T13:53:22.017Z,98406.66
2023-06-11T13:55:49.168Z,98406.88
2023-06-11T13:58:17.358Z,98407.25
2023-06-11T14:00:45.152Z,98415.09
2023-06-11T14:03:14.325Z,98421.22
2023-06-11T14:05:41.227Z,98425.47
2023-06-11T14:08:09.373Z,98419.75
2023-06-11T14:10:36.123Z,98407.72
2023-06-11T14:13:04.163Z,98411.59
2023-06-11T14:15:31.351Z,98406.78
2023-06-11T14:17:59.528Z,98415.38
2023-06-11T14:20:26.441Z,98407.16
2023-06-11T14:22:53.247Z,98421.78
2023-06-11T14:25:20.051Z,98417.81
2023-06-11T14:27:46.845Z,98413.59
2023-06-11T14:30:14.561Z,98420.50
2023-06-11T14:32:41.606Z,98421.25
2023-06-11T14:35:08.556Z,98432.03
2023-06-11T14:37:35.333Z,98417.59
2023-06-11T14:40:02.145Z,98416.00
2023-06-11T14:42:30.467Z,98413.56
2023-06-11T14:44:57.356Z,98418.78
2023-06-11T14:47:25.490Z,98421.06
2023-06-11T14:49:52.872Z,98426.91
2023-06-11T14:52:20.232Z,98417.94
2023-06-11T14:54:47.664Z,98422.63
2023-06-11T14:57:19.804Z,98411.47
2023-06-11T14:59:46.829Z,98410.25
2023-06-11T15:02:17.182Z,98419.56
2023-06-11T15:04:45.110Z,98414.66
2023-06-11T15:09:45.976Z,98419.56
2023-06-11T15:12:13.999Z,98428.63
2023-06-11T15:14:41.482Z,98417.84
2023-06-11T15:17:08.276Z,98416.56
2023-06-11T15:19:36.046Z,98402.22
2023-06-11T15:22:06.714Z,98397.97
2023-06-11T15:24:33.551Z,98415.38
2023-06-11T15:27:00.412Z,98407.16
2023-06-11T15:29:27.440Z,98404.94
2023-06-11T15:32:01.807Z,98406.28
2023-06-11T15:34:28.642Z,98404.06
2023-06-11T15:36:55.345Z,98414.19
2023-06-11T15:39:22.126Z,98401.69
2023-06-11T15:41:48.941Z,98410.75
2023-06-11T15:44:15.741Z,98402.31
2023-06-11T15:46:43.457Z,98400.16
2023-06-11T15:49:10.374Z,98399.53
2023-06-11T15:51:39.610Z,98403.63
2023-06-11T15:54:08.242Z,98395.47
2023-06-11T15:56:35.409Z,98397.25
2023-06-11T15:59:02.141Z,98393.25
2023-06-11T16:01:31.370Z,98390.84
2023-06-11T16:03:59.717Z,98399.19
2023-06-11T16:06:26.581Z,98389.38
2023-06-11T16:08:54.462Z,98396.34
2023-06-11T16:11:21.291Z,98389.41
2023-06-11T16:13:48.034Z,98392.16
2023-06-11T16:16:14.805Z,98399.88
2023-06-11T16:18:41.825Z,98395.06
2023-06-11T16:21:08.571Z,98396.94
2023-06-11T16:23:35.401Z,98403.81
2023-06-11T16:26:03.826Z,98408.16
2023-06-11T16:28:30.611Z,98397.78
2023-06-11T16:30:58.291Z,98402.22
2023-06-11T16:33:25.341Z,98408.19
2023-06-11T16:35:52.712Z,98407.88
2023-06-11T16:38:20.579Z,98404.53
2023-06-11T16:40:47.398Z,98401.75
2023-06-11T16:43:14.198Z,98405.16
2023-06-11T16:45:41.136Z,98398.00
2023-06-11T16:48:08.426Z,98401.66
2023-06-11T16:50:36.155Z,98405.03
2023-06-11T16:53:02.952Z,98404.78
2023-06-11T16:55:30.212Z,98405.16
2023-06-11T16:57:58.405Z,98418.09
2023-06-11T17:00:25.358Z,98431.50
2023-06-11T17:02:56.083Z,98408.00
2023-06-11T17:05:23.325Z,98423.13
2023-06-11T17:08:00.581Z,98425.06
2023-06-11T17:10:30.159Z,98423.97
2023-06-11T17:12:57.593Z,98416.81
2023-06-11T17:15:25.613Z,98422.63
2023-06-11T17:17:52.479Z,98418.88
2023-06-11T17:20:19.554Z,98412.38
2023-06-11T17:22:48.676Z,98424.69
2023-06-11T17:25:16.886Z,98417.53
2023-06-11T17:27:46.860Z,98422.13
2023-06-11T17:30:13.997Z,98419.41
2023-06-11T17:32:41.872Z,98431.91
2023-06-11T17:35:09.155Z,98432.44
2023-06-11T17:37:37.152Z,98429.38
2023-06-11T17:40:05.817Z,98431.28
2023-06-11T17:42:32.673Z,98438.25
2023-06-11T17:45:00.574Z,98434.84
2023-06-11T17:47:27.445Z,98434.72
2023-06-11T17:49:54.818Z,98429.91
2023-06-11T17:52:21.754Z,98432.19
2023-06-11T17:54:48.549Z,98438.16
2023-06-11T17:57:16.490Z,98430.31
2023-06-11T17:59:46.300Z,98439.53
2023-06-11T18:02:15.439Z,98433.56
2023-06-11T18:04:42.171Z,98445.88
2023-06-11T18:07:08.933Z,98444.16
2023-06-11T18:09:39.223Z,98445.19
2023-06-11T18:12:07.032Z,98455.47
2023-06-11T18:14:34.720Z,98449.16
2023-06-11T18:17:01.488Z,98443.84
2023-06-11T18:19:29.152Z,98448.81
2023-06-11T18:21:56.074Z,98448.44
2023-06-11T18:24:23.619Z,98460.53
2023-06-11T18:26:51.101Z,98465.66
2023-06-11T18:29:18.010Z,98472.47
2023-06-11T18:31:44.807Z,98458.81
2023-06-11T18:34:11.600Z,98466.78
2023-06-11T18:36:39.477Z,98468.47
2023-06-11T18:39:06.471Z,98470.16
2023-06-11T18:41:33.273Z,98479.84
2023-06-11T18:44:00.003Z,98468.56
2023-06-11T18:46:29.281Z,98482.38
2023-06-11T18:48:56.294Z,98480.44
2023-06-11T18:51:23.068Z,98481.56
2023-06-11T18:53:49.821Z,98487.34
2023-06-11T18:56:16.574Z,98489.38
2023-06-11T18:58:43.354Z,98484.88
2023-06-11T19:01:10.495Z,98483.47
2023-06-11T19:03:40.570Z,98493.16
2023-06-11T19:06:08.856Z,98489.31
2023-06-11T19:08:35.759Z,98491.47
2023-06-11T19:11:03.390Z,98493.59
2023-06-11T19:13:33.195Z,98501.22
2023-06-11T19:16:00.588Z,98497.41
2023-06-11T19:18:27.680Z,98496.88
2023-06-11T19:20:54.845Z,98503.34
2023-06-11T19:23:21.758Z,98501.91
2023-06-11T19:25:48.891Z,98503.03
2023-06-11T19:28:17.392Z,98508.09
2023-06-11T19:30:44.275Z,98506.84
2023-06-11T19:33:11.632Z,98513.63
2023-06-11T19:35:39.092Z,98521.38
2023-06-11T19:38:05.998Z,98519.84
2023-06-11T19:40:32.953Z,98522.69
2023-06-11T19:42:59.760Z,98526.44
2023-06-11T19:45:27.712Z,98529.59
2023-06-11T19:47:55.684Z,98524.63
2023-06-11T19:50:27.365Z,98522.19
2023-06-11T19:52:54.761Z,98526.09
2023-06-11T19:55:21.774Z,98526.16
2023-06-11T19:57:48.589Z,98528.78
2023-06-11T20:00:16.439Z,98529.53
2023-06-11T20:02:43.237Z,98531.16
2023-06-11T20:05:10.440Z,98528.31
2023-06-11T20:07:37.209Z,98525.63
2023-06-11T20:10:04.303Z,98534.53
2023-06-11T20:12:31.210Z,98531.84
2023-06-11T20:14:58.045Z,98526.88
2023-06-11T20:17:24.943Z,98540.91
2023-06-11T20:19:51.766Z,98535.88
2023-06-11T20:22:18.618Z,98538.88
2023-06-11T20:24:47.287Z,98548.19
2023-06-11T20:27:14.028Z,98547.50
2023-06-11T20:29:59.598Z,98547.75
2023-06-11T20:32:26.468Z,98546.66
2023-06-11T20:34:53.289Z,98546.38
2023-06-11T20:37:21.461Z,98550.38
2023-06-11T20:39:48.255Z,98551.53
2023-06-11T20:42:16.451Z,98562.41
2023-06-11T20:44:43.197Z,98555.97
2023-06-11T20:47:10.109Z,98559.56
2023-06-11T20:49:37.872Z,98562.13
2023-06-11T20:52:06.174Z,98564.97
2023-06-11T20:54:33.007Z,98569.56
2023-06-11T20:56:59.781Z,98563.69
2023-06-11T20:59:26.564Z,98575.00
2023-06-11T21:01:54.355Z,98565.56
2023-06-11T21:04:21.217Z,98574.28
2023-06-11T21:06:47.977Z,98569.13
2023-06-11T21:09:14.695Z,98565.00
2023-06-11T21:11:42.811Z,98567.56
2023-06-11T21:14:14.270Z,98564.13
2023-06-11T21:16:41.986Z,98560.00
2023-06-11T21:19:09.234Z,98563.56
2023-06-11T21:21:37.826Z,98570.94
2023-06-11T21:24:05.049Z,98571.50
2023-06-11T21:26:31.811Z,98568.63
2023-06-11T21:29:01.237Z,98563.34
2023-06-11T21:31:28.328Z,98559.94
2023-06-11T21:33:55.104Z,98562.91
2023-06-11T21:36:21.951Z,98564.31
2023-06-11T21:38:48.732Z,98560.31
2023-06-11T21:41:17.126Z,98560.19
2023-06-11T21:43:43.963Z,98560.56
2023-06-11T21:46:10.769Z,98562.16
2023-06-11T21:48:37.545Z,98558.72
2023-06-11T21:51:04.315Z,98563.44
2023-06-11T21:53:31.026Z,98564.13
2023-06-11T21:55:57.826Z,98548.00
2023-06-11T21:58:26.264Z,98567.97
2023-06-11T22:00:53.135Z,98560.13
2023-06-11T22:03:20.479Z,98563.81
2023-06-11T22:05:47.511Z,98557.81
2023-06-11T22:08:14.987Z,98561.06
2023-06-11T22:10:41.714Z,98566.91
2023-06-11T22:13:08.585Z,98570.16
2023-06-11T22:15:35.698Z,98573.84
2023-06-11T22:18:05.351Z,98564.50
2023-06-11T22:20:33.775Z,98571.47
2023-06-11T22:23:01.275Z,98577.28
2023-06-11T22:25:28.312Z,98574.69
2023-06-11T22:27:56.280Z,98574.50
2023-06-11T22:30:23.605Z,98572.91
2023-06-11T22:32:51.778Z,98571.44
2023-06-11T22:35:18.615Z,98566.69
2023-06-11T22:37:45.405Z,98567.09
2023-06-11T22:40:12.763Z,98564.94
2023-06-11T22:42:39.717Z,98560.38
2023-06-11T22:45:08.218Z,98563.06
2023-06-11T22:47:35.104Z,98552.66
2023-06-11T22:50:02.196Z,98557.19
2023-06-11T22:52:32.588Z,98557.31
2023-06-11T22:54:59.321Z,98551.44
2023-06-11T22:57:26.150Z,98561.69
2023-06-11T22:59:52.956Z,98560.81
2023-06-11T23:02:20.184Z,98556.78
2023-06-11T23:04:47.169Z,98560.47
2023-06-11T23:07:18.398Z,98560.59
2023-06-11T23:09:45.709Z,98560.03
2023-06-11T23:12:15.446Z,98560.94
2023-06-11T23:14:42.230Z,98553.66
2023-06-11T23:17:10.503Z,98557.81
2023-06-11T23:19:38.875Z,98555.00
2023-06-11T23:22:08.663Z,98548.13
2023-06-11T23:24:40.792Z,98546.78
2023-06-11T23:27:08.616Z,98549.50
2023-06-11T23:29:36.005Z,98546.66
2023-06-11T23:32:04.034Z,98547.53
2023-06-11T23:34:31.944Z,98547.53
2023-06-11T23:37:00.977Z,98541.50
2023-06-11T23:39:28.890Z,98545.72
2023-06-11T23:41:58.178Z,98542.53
2023-06-11T23:44:24.938Z,98541.94
2023-06-11T23:46:51.686Z,98543.91
2023-06-11T23:49:19.584Z,98543.44
2023-06-11T23:51:46.517Z,98541.59
2023-06-11T23:54:14.910Z,98542.19
2023-06-11T23:56:42.053Z,98536.94
2023-06-11T23:59:08.978Z,98530.19
